sensor_id;sensor_type;location;lat;lon;timestamp;P1;durP1;ratioP1;P2;durP2;ratioP2
59169;SDS011;52474;52.236;5.114;2023-04-24T00:00:26;7.03;;;3.70;;
59169;SDS011;52474;52.236;5.114;2023-04-24T00:02:52;4.35;;;2.70;;
59169;SDS011;52474;52.236;5.114;2023-04-24T00:05:22;3.47;;;1.67;;
59169;SDS011;52474;52.236;5.114;2023-04-24T00:07:47;1.77;;;1.20;;
59169;SDS011;52474;52.236;5.114;2023-04-24T00:10:13;2.45;;;0.93;;
59169;SDS011;52474;52.236;5.114;2023-04-24T00:12:39;0.95;;;0.60;;
59169;SDS011;52474;52.236;5.114;2023-04-24T00:15:05;1.48;;;0.80;;
59169;SDS011;52474;52.236;5.114;2023-04-24T00:17:34;2.83;;;1.35;;
59169;SDS011;52474;52.236;5.114;2023-04-24T00:20:03;4.78;;;2.55;;
59169;SDS011;52474;52.236;5.114;2023-04-24T00:22:32;5.75;;;3.13;;
59169;SDS011;52474;52.236;5.114;2023-04-24T00:24:59;3.80;;;2.50;;
59169;SDS011;52474;52.236;5.114;2023-04-24T00:27:24;4.47;;;2.47;;
59169;SDS011;52474;52.236;5.114;2023-04-24T00:29:50;2.97;;;1.95;;
59169;SDS011;52474;52.236;5.114;2023-04-24T00:32:16;2.33;;;1.63;;
59169;SDS011;52474;52.236;5.114;2023-04-24T00:34:42;3.42;;;1.40;;
59169;SDS011;52474;52.236;5.114;2023-04-24T00:37:09;3.03;;;1.27;;
59169;SDS011;52474;52.236;5.114;2023-04-24T00:39:36;2.72;;;1.00;;
59169;SDS011;52474;52.236;5.114;2023-04-24T00:42:01;1.80;;;1.00;;
59169;SDS011;52474;52.236;5.114;2023-04-24T00:44:27;0.95;;;0.80;;
59169;SDS011;52474;52.236;5.114;2023-04-24T00:46:54;1.33;;;0.93;;
59169;SDS011;52474;52.236;5.114;2023-04-24T00:49:21;2.30;;;1.10;;
59169;SDS011;52474;52.236;5.114;2023-04-24T00:51:47;3.50;;;1.58;;
59169;SDS011;52474;52.236;5.114;2023-04-24T00:54:15;2.22;;;1.10;;
59169;SDS011;52474;52.236;5.114;2023-04-24T00:56:42;2.13;;;1.30;;
59169;SDS011;52474;52.236;5.114;2023-04-24T00:59:09;2.53;;;1.30;;
59169;SDS011;52474;52.236;5.114;2023-04-24T01:01:37;3.88;;;1.20;;
59169;SDS011;52474;52.236;5.114;2023-04-24T01:04:07;2.90;;;1.23;;
59169;SDS011;52474;52.236;5.114;2023-04-24T01:06:35;2.63;;;1.10;;
59169;SDS011;52474;52.236;5.114;2023-04-24T01:09:04;1.25;;;1.00;;
59169;SDS011;52474;52.236;5.114;2023-04-24T01:11:30;3.17;;;1.35;;
59169;SDS011;52474;52.236;5.114;2023-04-24T01:13:56;4.00;;;1.33;;
59169;SDS011;52474;52.236;5.114;2023-04-24T01:16:25;2.28;;;1.30;;
59169;SDS011;52474;52.236;5.114;2023-04-24T01:18:53;2.45;;;1.10;;
59169;SDS011;52474;52.236;5.114;2023-04-24T01:21:18;2.45;;;1.02;;
59169;SDS011;52474;52.236;5.114;2023-04-24T01:23:47;2.22;;;1.20;;
59169;SDS011;52474;52.236;5.114;2023-04-24T01:26:14;2.60;;;1.42;;
59169;SDS011;52474;52.236;5.114;2023-04-24T01:28:41;2.78;;;1.35;;
59169;SDS011;52474;52.236;5.114;2023-04-24T01:31:07;1.58;;;1.20;;
59169;SDS011;52474;52.236;5.114;2023-04-24T01:33:33;2.50;;;1.50;;
59169;SDS011;52474;52.236;5.114;2023-04-24T01:35:59;3.10;;;1.95;;
59169;SDS011;52474;52.236;5.114;2023-04-24T01:38:26;4.97;;;2.10;;
59169;SDS011;52474;52.236;5.114;2023-04-24T01:40:52;3.47;;;2.10;;
59169;SDS011;52474;52.236;5.114;2023-04-24T01:43:19;3.58;;;2.42;;
59169;SDS011;52474;52.236;5.114;2023-04-24T01:45:45;5.05;;;2.22;;
59169;SDS011;52474;52.236;5.114;2023-04-24T01:48:11;5.78;;;2.20;;
59169;SDS011;52474;52.236;5.114;2023-04-24T01:50:37;3.47;;;1.60;;
59169;SDS011;52474;52.236;5.114;2023-04-24T01:53:03;3.28;;;1.95;;
59169;SDS011;52474;52.236;5.114;2023-04-24T01:55:30;6.43;;;1.92;;
59169;SDS011;52474;52.236;5.114;2023-04-24T01:57:55;2.08;;;1.35;;
59169;SDS011;52474;52.236;5.114;2023-04-24T02:00:21;3.75;;;1.60;;
59169;SDS011;52474;52.236;5.114;2023-04-24T02:02:47;3.65;;;1.42;;
59169;SDS011;52474;52.236;5.114;2023-04-24T02:05:13;4.05;;;1.70;;
59169;SDS011;52474;52.236;5.114;2023-04-24T02:07:39;6.55;;;2.10;;
59169;SDS011;52474;52.236;5.114;2023-04-24T02:10:06;3.05;;;1.63;;
59169;SDS011;52474;52.236;5.114;2023-04-24T02:12:35;3.83;;;1.58;;
59169;SDS011;52474;52.236;5.114;2023-04-24T02:15:01;5.15;;;1.70;;
59169;SDS011;52474;52.236;5.114;2023-04-24T02:17:28;2.50;;;1.23;;
59169;SDS011;52474;52.236;5.114;2023-04-24T02:19:56;2.30;;;1.63;;
59169;SDS011;52474;52.236;5.114;2023-04-24T02:22:22;3.63;;;1.85;;
59169;SDS011;52474;52.236;5.114;2023-04-24T02:24:47;2.92;;;1.02;;
59169;SDS011;52474;52.236;5.114;2023-04-24T02:27:15;0.93;;;0.80;;
59169;SDS011;52474;52.236;5.114;2023-04-24T02:29:41;2.17;;;1.00;;
59169;SDS011;52474;52.236;5.114;2023-04-24T02:32:06;1.08;;;0.88;;
59169;SDS011;52474;52.236;5.114;2023-04-24T02:34:32;1.02;;;0.75;;
59169;SDS011;52474;52.236;5.114;2023-04-24T02:36:58;1.40;;;0.80;;
59169;SDS011;52474;52.236;5.114;2023-04-24T02:39:24;1.58;;;1.00;;
59169;SDS011;52474;52.236;5.114;2023-04-24T02:41:51;1.08;;;0.80;;
59169;SDS011;52474;52.236;5.114;2023-04-24T02:44:17;1.98;;;0.80;;
59169;SDS011;52474;52.236;5.114;2023-04-24T02:46:43;1.20;;;0.90;;
59169;SDS011;52474;52.236;5.114;2023-04-24T02:49:09;2.35;;;1.13;;
59169;SDS011;52474;52.236;5.114;2023-04-24T02:51:37;4.53;;;1.35;;
59169;SDS011;52474;52.236;5.114;2023-04-24T02:54:07;2.30;;;1.40;;
59169;SDS011;52474;52.236;5.114;2023-04-24T02:56:34;3.67;;;1.88;;
59169;SDS011;52474;52.236;5.114;2023-04-24T02:59:01;4.60;;;1.80;;
59169;SDS011;52474;52.236;5.114;2023-04-24T03:01:30;2.92;;;1.95;;
59169;SDS011;52474;52.236;5.114;2023-04-24T03:03:56;3.75;;;1.98;;
59169;SDS011;52474;52.236;5.114;2023-04-24T03:06:22;3.92;;;1.80;;
59169;SDS011;52474;52.236;5.114;2023-04-24T03:08:48;2.22;;;1.67;;
59169;SDS011;52474;52.236;5.114;2023-04-24T03:11:14;4.57;;;1.80;;
59169;SDS011;52474;52.236;5.114;2023-04-24T03:13:41;2.50;;;1.90;;
59169;SDS011;52474;52.236;5.114;2023-04-24T03:16:06;3.25;;;2.13;;
59169;SDS011;52474;52.236;5.114;2023-04-24T03:18:33;4.95;;;2.10;;
59169;SDS011;52474;52.236;5.114;2023-04-24T03:20:59;5.68;;;2.50;;
59169;SDS011;52474;52.236;5.114;2023-04-24T03:23:26;4.68;;;2.47;;
59169;SDS011;52474;52.236;5.114;2023-04-24T03:25:53;3.45;;;1.98;;
59169;SDS011;52474;52.236;5.114;2023-04-24T03:28:20;4.93;;;2.70;;
59169;SDS011;52474;52.236;5.114;2023-04-24T03:30:58;5.72;;;2.83;;
59169;SDS011;52474;52.236;5.114;2023-04-24T03:33:28;3.90;;;2.00;;
59169;SDS011;52474;52.236;5.114;2023-04-24T03:36:01;4.43;;;2.67;;
59169;SDS011;52474;52.236;5.114;2023-04-24T03:38:35;7.18;;;2.88;;
59169;SDS011;52474;52.236;5.114;2023-04-24T03:41:23;3.45;;;2.33;;
59169;SDS011;52474;52.236;5.114;2023-04-24T03:43:54;4.35;;;2.55;;
59169;SDS011;52474;52.236;5.114;2023-04-24T03:46:19;6.60;;;3.10;;
59169;SDS011;52474;52.236;5.114;2023-04-24T03:48:55;5.82;;;2.75;;
59169;SDS011;52474;52.236;5.114;2023-04-24T03:51:26;4.60;;;2.70;;
59169;SDS011;52474;52.236;5.114;2023-04-24T03:53:56;6.63;;;3.20;;
59169;SDS011;52474;52.236;5.114;2023-04-24T03:56:26;5.78;;;2.67;;
59169;SDS011;52474;52.236;5.114;2023-04-24T03:58:54;5.22;;;2.53;;
59169;SDS011;52474;52.236;5.114;2023-04-24T04:01:20;4.43;;;2.42;;
59169;SDS011;52474;52.236;5.114;2023-04-24T04:03:58;5.45;;;2.50;;
59169;SDS011;52474;52.236;5.114;2023-04-24T04:06:26;5.05;;;2.78;;
59169;SDS011;52474;52.236;5.114;2023-04-24T04:08:54;6.05;;;2.20;;
59169;SDS011;52474;52.236;5.114;2023-04-24T04:11:19;6.45;;;2.88;;
59169;SDS011;52474;52.236;5.114;2023-04-24T04:13:45;4.90;;;2.33;;
59169;SDS011;52474;52.236;5.114;2023-04-24T04:16:14;4.60;;;2.47;;
59169;SDS011;52474;52.236;5.114;2023-04-24T04:18:43;3.25;;;2.15;;
59169;SDS011;52474;52.236;5.114;2023-04-24T04:21:09;6.97;;;2.70;;
59169;SDS011;52474;52.236;5.114;2023-04-24T04:23:35;6.55;;;2.70;;
59169;SDS011;52474;52.236;5.114;2023-04-24T04:26:07;4.57;;;2.40;;
59169;SDS011;52474;52.236;5.114;2023-04-24T04:28:58;6.28;;;3.00;;
59169;SDS011;52474;52.236;5.114;2023-04-24T04:31:26;6.95;;;2.85;;
59169;SDS011;52474;52.236;5.114;2023-04-24T04:33:53;4.30;;;2.50;;
59169;SDS011;52474;52.236;5.114;2023-04-24T04:36:19;5.70;;;2.70;;
59169;SDS011;52474;52.236;5.114;2023-04-24T04:38:50;4.13;;;2.05;;
59169;SDS011;52474;52.236;5.114;2023-04-24T04:41:45;4.20;;;1.65;;
59169;SDS011;52474;52.236;5.114;2023-04-24T04:44:16;4.10;;;1.77;;
59169;SDS011;52474;52.236;5.114;2023-04-24T04:46:42;4.07;;;1.67;;
59169;SDS011;52474;52.236;5.114;2023-04-24T04:49:19;2.95;;;1.70;;
59169;SDS011;52474;52.236;5.114;2023-04-24T04:51:47;3.53;;;1.73;;
59169;SDS011;52474;52.236;5.114;2023-04-24T04:54:14;3.00;;;1.30;;
59169;SDS011;52474;52.236;5.114;2023-04-24T04:56:41;1.75;;;1.20;;
59169;SDS011;52474;52.236;5.114;2023-04-24T04:59:07;2.38;;;1.20;;
59169;SDS011;52474;52.236;5.114;2023-04-24T05:01:35;2.38;;;1.38;;
59169;SDS011;52474;52.236;5.114;2023-04-24T05:04:02;2.95;;;1.40;;
59169;SDS011;52474;52.236;5.114;2023-04-24T05:06:27;3.35;;;1.60;;
59169;SDS011;52474;52.236;5.114;2023-04-24T05:08:54;2.80;;;1.15;;
59169;SDS011;52474;52.236;5.114;2023-04-24T05:11:41;1.65;;;1.00;;
59169;SDS011;52474;52.236;5.114;2023-04-24T05:14:07;0.98;;;0.75;;
59169;SDS011;52474;52.236;5.114;2023-04-24T05:16:38;1.38;;;0.82;;
59169;SDS011;52474;52.236;5.114;2023-04-24T05:19:06;0.98;;;0.70;;
59169;SDS011;52474;52.236;5.114;2023-04-24T05:21:35;1.70;;;0.70;;
59169;SDS011;52474;52.236;5.114;2023-04-24T05:24:01;0.75;;;0.60;;
59169;SDS011;52474;52.236;5.114;2023-04-24T05:26:43;1.30;;;1.00;;
59169;SDS011;52474;52.236;5.114;2023-04-24T05:29:10;2.13;;;1.10;;
59169;SDS011;52474;52.236;5.114;2023-04-24T05:31:37;1.88;;;1.20;;
59169;SDS011;52474;52.236;5.114;2023-04-24T05:34:02;2.83;;;0.80;;
59169;SDS011;52474;52.236;5.114;2023-04-24T05:36:29;1.90;;;0.57;;
59169;SDS011;52474;52.236;5.114;2023-04-24T05:38:56;0.85;;;0.57;;
59169;SDS011;52474;52.236;5.114;2023-04-24T05:41:21;0.68;;;0.55;;
59169;SDS011;52474;52.236;5.114;2023-04-24T05:43:47;0.50;;;0.40;;
59169;SDS011;52474;52.236;5.114;2023-04-24T05:46:13;1.92;;;0.50;;
59169;SDS011;52474;52.236;5.114;2023-04-24T05:48:39;2.35;;;0.63;;
59169;SDS011;52474;52.236;5.114;2023-04-24T05:51:05;1.52;;;0.57;;
59169;SDS011;52474;52.236;5.114;2023-04-24T05:53:31;3.30;;;0.85;;
59169;SDS011;52474;52.236;5.114;2023-04-24T05:55:58;2.88;;;0.70;;
59169;SDS011;52474;52.236;5.114;2023-04-24T05:58:27;1.97;;;1.53;;
59169;SDS011;52474;52.236;5.114;2023-04-24T06:00:53;3.60;;;1.77;;
59169;SDS011;52474;52.236;5.114;2023-04-24T06:03:19;6.03;;;3.00;;
59169;SDS011;52474;52.236;5.114;2023-04-24T06:05:47;5.70;;;3.45;;
59169;SDS011;52474;52.236;5.114;2023-04-24T06:08:12;8.35;;;4.65;;
59169;SDS011;52474;52.236;5.114;2023-04-24T06:10:40;11.00;;;4.95;;
59169;SDS011;52474;52.236;5.114;2023-04-24T06:13:07;15.27;;;6.63;;
59169;SDS011;52474;52.236;5.114;2023-04-24T06:15:36;15.23;;;6.30;;
59169;SDS011;52474;52.236;5.114;2023-04-24T06:18:13;13.88;;;6.53;;
59169;SDS011;52474;52.236;5.114;2023-04-24T06:20:40;17.48;;;7.53;;
59169;SDS011;52474;52.236;5.114;2023-04-24T06:23:08;19.75;;;7.97;;
59169;SDS011;52474;52.236;5.114;2023-04-24T06:25:35;17.85;;;8.27;;
59169;SDS011;52474;52.236;5.114;2023-04-24T06:28:01;21.83;;;9.73;;
59169;SDS011;52474;52.236;5.114;2023-04-24T06:30:29;17.42;;;9.02;;
59169;SDS011;52474;52.236;5.114;2023-04-24T06:32:58;24.35;;;10.75;;
59169;SDS011;52474;52.236;5.114;2023-04-24T06:35:24;18.70;;;8.98;;
59169;SDS011;52474;52.236;5.114;2023-04-24T06:37:50;21.20;;;10.80;;
59169;SDS011;52474;52.236;5.114;2023-04-24T06:40:16;17.27;;;9.57;;
59169;SDS011;52474;52.236;5.114;2023-04-24T06:42:44;22.75;;;10.93;;
59169;SDS011;52474;52.236;5.114;2023-04-24T06:45:10;16.25;;;8.07;;
59169;SDS011;52474;52.236;5.114;2023-04-24T06:47:36;17.67;;;7.57;;
59169;SDS011;52474;52.236;5.114;2023-04-24T06:50:03;27.88;;;10.75;;
59169;SDS011;52474;52.236;5.114;2023-04-24T06:52:29;16.38;;;8.38;;
59169;SDS011;52474;52.236;5.114;2023-04-24T06:55:02;21.90;;;9.30;;
59169;SDS011;52474;52.236;5.114;2023-04-24T06:57:29;15.38;;;7.85;;
59169;SDS011;52474;52.236;5.114;2023-04-24T06:59:55;20.55;;;8.77;;
59169;SDS011;52474;52.236;5.114;2023-04-24T07:02:21;25.77;;;9.13;;
59169;SDS011;52474;52.236;5.114;2023-04-24T07:04:47;17.33;;;9.07;;
59169;SDS011;52474;52.236;5.114;2023-04-24T07:07:13;16.20;;;8.18;;
59169;SDS011;52474;52.236;5.114;2023-04-24T07:09:40;14.00;;;7.60;;
59169;SDS011;52474;52.236;5.114;2023-04-24T07:12:11;21.70;;;8.35;;
59169;SDS011;52474;52.236;5.114;2023-04-24T07:14:37;15.13;;;7.57;;
59169;SDS011;52474;52.236;5.114;2023-04-24T07:17:04;21.20;;;7.65;;
59169;SDS011;52474;52.236;5.114;2023-04-24T07:19:31;16.52;;;8.32;;
59169;SDS011;52474;52.236;5.114;2023-04-24T07:21:58;16.02;;;7.05;;
59169;SDS011;52474;52.236;5.114;2023-04-24T07:24:25;19.50;;;7.82;;
59169;SDS011;52474;52.236;5.114;2023-04-24T07:26:53;12.33;;;6.97;;
59169;SDS011;52474;52.236;5.114;2023-04-24T07:29:24;20.70;;;7.60;;
59169;SDS011;52474;52.236;5.114;2023-04-24T07:31:50;12.65;;;6.40;;
59169;SDS011;52474;52.236;5.114;2023-04-24T07:34:16;17.50;;;6.68;;
59169;SDS011;52474;52.236;5.114;2023-04-24T07:36:42;12.98;;;6.60;;
59169;SDS011;52474;52.236;5.114;2023-04-24T07:39:07;18.88;;;7.95;;
59169;SDS011;52474;52.236;5.114;2023-04-24T07:41:33;12.60;;;5.60;;
59169;SDS011;52474;52.236;5.114;2023-04-24T07:43:59;19.23;;;6.65;;
59169;SDS011;52474;52.236;5.114;2023-04-24T07:46:25;17.63;;;6.50;;
59169;SDS011;52474;52.236;5.114;2023-04-24T07:48:55;17.85;;;5.22;;
59169;SDS011;52474;52.236;5.114;2023-04-24T07:51:27;17.08;;;6.40;;
59169;SDS011;52474;52.236;5.114;2023-04-24T07:53:54;10.52;;;5.07;;
59169;SDS011;52474;52.236;5.114;2023-04-24T07:56:22;19.73;;;5.30;;
59169;SDS011;52474;52.236;5.114;2023-04-24T07:58:49;8.00;;;3.80;;
59169;SDS011;52474;52.236;5.114;2023-04-24T08:01:15;16.35;;;3.65;;
59169;SDS011;52474;52.236;5.114;2023-04-24T08:03:41;14.25;;;3.78;;
59169;SDS011;52474;52.236;5.114;2023-04-24T08:06:07;12.88;;;3.78;;
59169;SDS011;52474;52.236;5.114;2023-04-24T08:08:32;11.52;;;2.85;;
59169;SDS011;52474;52.236;5.114;2023-04-24T08:10:59;13.15;;;3.92;;
59169;SDS011;52474;52.236;5.114;2023-04-24T08:13:25;15.43;;;3.60;;
59169;SDS011;52474;52.236;5.114;2023-04-24T08:15:51;18.42;;;4.25;;
59169;SDS011;52474;52.236;5.114;2023-04-24T08:18:17;18.15;;;3.40;;
59169;SDS011;52474;52.236;5.114;2023-04-24T08:20:43;20.20;;;3.80;;
59169;SDS011;52474;52.236;5.114;2023-04-24T08:23:10;12.23;;;3.45;;
59169;SDS011;52474;52.236;5.114;2023-04-24T08:25:36;9.77;;;2.47;;
59169;SDS011;52474;52.236;5.114;2023-04-24T08:28:03;8.05;;;2.53;;
59169;SDS011;52474;52.236;5.114;2023-04-24T08:30:29;8.45;;;2.47;;
59169;SDS011;52474;52.236;5.114;2023-04-24T08:32:55;11.85;;;2.60;;
59169;SDS011;52474;52.236;5.114;2023-04-24T08:35:21;6.32;;;2.13;;
59169;SDS011;52474;52.236;5.114;2023-04-24T08:37:48;8.23;;;2.70;;
59169;SDS011;52474;52.236;5.114;2023-04-24T08:40:15;6.28;;;2.00;;
59169;SDS011;52474;52.236;5.114;2023-04-24T08:42:42;9.23;;;2.47;;
59169;SDS011;52474;52.236;5.114;2023-04-24T08:45:09;6.75;;;2.08;;
59169;SDS011;52474;52.236;5.114;2023-04-24T08:47:37;5.28;;;2.00;;
59169;SDS011;52474;52.236;5.114;2023-04-24T08:50:05;10.25;;;3.45;;
59169;SDS011;52474;52.236;5.114;2023-04-24T08:52:35;8.85;;;2.22;;
59169;SDS011;52474;52.236;5.114;2023-04-24T08:55:01;12.20;;;2.55;;
59169;SDS011;52474;52.236;5.114;2023-04-24T08:57:29;9.05;;;2.50;;
59169;SDS011;52474;52.236;5.114;2023-04-24T08:59:57;5.80;;;1.95;;
59169;SDS011;52474;52.236;5.114;2023-04-24T09:02:24;12.85;;;2.50;;
59169;SDS011;52474;52.236;5.114;2023-04-24T09:04:53;11.27;;;2.47;;
59169;SDS011;52474;52.236;5.114;2023-04-24T09:07:24;10.82;;;2.45;;
59169;SDS011;52474;52.236;5.114;2023-04-24T09:09:51;12.82;;;2.70;;
59169;SDS011;52474;52.236;5.114;2023-04-24T09:12:18;9.60;;;2.17;;
59169;SDS011;52474;52.236;5.114;2023-04-24T09:14:44;8.68;;;3.40;;
59169;SDS011;52474;52.236;5.114;2023-04-24T09:17:13;8.73;;;2.40;;
59169;SDS011;52474;52.236;5.114;2023-04-24T09:19:39;8.18;;;2.83;;
59169;SDS011;52474;52.236;5.114;2023-04-24T09:22:06;4.45;;;1.92;;
59169;SDS011;52474;52.236;5.114;2023-04-24T09:24:33;6.38;;;2.05;;
59169;SDS011;52474;52.236;5.114;2023-04-24T09:27:00;9.15;;;2.05;;
59169;SDS011;52474;52.236;5.114;2023-04-24T09:29:27;9.00;;;2.15;;
59169;SDS011;52474;52.236;5.114;2023-04-24T09:31:53;10.23;;;2.83;;
59169;SDS011;52474;52.236;5.114;2023-04-24T09:34:23;9.93;;;2.42;;
59169;SDS011;52474;52.236;5.114;2023-04-24T09:36:51;7.30;;;2.20;;
59169;SDS011;52474;52.236;5.114;2023-04-24T09:39:17;8.50;;;2.30;;
59169;SDS011;52474;52.236;5.114;2023-04-24T09:44:13;7.05;;;2.05;;
59169;SDS011;52474;52.236;5.114;2023-04-24T09:46:48;9.45;;;2.70;;
59169;SDS011;52474;52.236;5.114;2023-04-24T09:49:16;6.78;;;2.42;;
59169;SDS011;52474;52.236;5.114;2023-04-24T09:57:04;7.32;;;1.40;;
59169;SDS011;52474;52.236;5.114;2023-04-24T09:59:32;2.75;;;1.50;;
59169;SDS011;52474;52.236;5.114;2023-04-24T10:01:59;5.47;;;1.27;;
59169;SDS011;52474;52.236;5.114;2023-04-24T10:04:26;2.67;;;1.13;;
59169;SDS011;52474;52.236;5.114;2023-04-24T10:06:53;9.75;;;2.08;;
59169;SDS011;52474;52.236;5.114;2023-04-24T10:09:23;3.40;;;1.40;;
59169;SDS011;52474;52.236;5.114;2023-04-24T10:11:51;6.20;;;1.40;;
59169;SDS011;52474;52.236;5.114;2023-04-24T10:14:22;5.40;;;1.50;;
59169;SDS011;52474;52.236;5.114;2023-04-24T10:16:49;3.75;;;1.40;;
59169;SDS011;52474;52.236;5.114;2023-04-24T10:19:18;6.10;;;1.20;;
59169;SDS011;52474;52.236;5.114;2023-04-24T10:21:45;2.13;;;1.00;;
59169;SDS011;52474;52.236;5.114;2023-04-24T10:24:17;2.85;;;0.93;;
59169;SDS011;52474;52.236;5.114;2023-04-24T10:26:45;4.32;;;1.30;;
59169;SDS011;52474;52.236;5.114;2023-04-24T10:29:15;5.03;;;1.20;;
59169;SDS011;52474;52.236;5.114;2023-04-24T10:31:42;6.65;;;1.10;;
59169;SDS011;52474;52.236;5.114;2023-04-24T10:34:10;5.90;;;1.10;;
59169;SDS011;52474;52.236;5.114;2023-04-24T10:36:40;4.82;;;1.10;;
59169;SDS011;52474;52.236;5.114;2023-04-24T10:39:12;5.43;;;1.45;;
59169;SDS011;52474;52.236;5.114;2023-04-24T10:41:45;4.40;;;1.00;;
59169;SDS011;52474;52.236;5.114;2023-04-24T10:44:12;5.57;;;1.20;;
59169;SDS011;52474;52.236;5.114;2023-04-24T10:46:43;2.15;;;0.80;;
59169;SDS011;52474;52.236;5.114;2023-04-24T10:49:13;4.32;;;0.82;;
59169;SDS011;52474;52.236;5.114;2023-04-24T10:51:47;4.60;;;1.40;;
59169;SDS011;52474;52.236;5.114;2023-04-24T10:54:33;2.20;;;0.90;;
59169;SDS011;52474;52.236;5.114;2023-04-24T10:59:43;5.57;;;1.20;;
59169;SDS011;52474;52.236;5.114;2023-04-24T11:02:10;3.28;;;1.00;;
59169;SDS011;52474;52.236;5.114;2023-04-24T11:04:36;4.43;;;0.95;;
59169;SDS011;52474;52.236;5.114;2023-04-24T11:07:02;3.38;;;1.02;;
59169;SDS011;52474;52.236;5.114;2023-04-24T11:09:32;4.68;;;0.90;;
59169;SDS011;52474;52.236;5.114;2023-04-24T11:12:08;1.85;;;0.70;;
59169;SDS011;52474;52.236;5.114;2023-04-24T11:17:31;2.60;;;0.60;;
59169;SDS011;52474;52.236;5.114;2023-04-24T11:20:03;0.80;;;0.43;;
59169;SDS011;52474;52.236;5.114;2023-04-24T11:22:35;1.35;;;0.40;;
59169;SDS011;52474;52.236;5.114;2023-04-24T11:25:08;4.57;;;0.60;;
59169;SDS011;52474;52.236;5.114;2023-04-24T11:27:46;1.58;;;0.57;;
59169;SDS011;52474;52.236;5.114;2023-04-24T11:30:19;2.53;;;0.60;;
59169;SDS011;52474;52.236;5.114;2023-04-24T11:32:50;5.75;;;0.77;;
59169;SDS011;52474;52.236;5.114;2023-04-24T11:35:26;3.92;;;0.70;;
59169;SDS011;52474;52.236;5.114;2023-04-24T11:37:54;3.60;;;0.80;;
59169;SDS011;52474;52.236;5.114;2023-04-24T11:40:21;2.45;;;1.20;;
59169;SDS011;52474;52.236;5.114;2023-04-24T11:42:56;2.78;;;0.80;;
59169;SDS011;52474;52.236;5.114;2023-04-24T11:45:26;6.35;;;1.02;;
59169;SDS011;52474;52.236;5.114;2023-04-24T11:47:54;4.43;;;0.70;;
59169;SDS011;52474;52.236;5.114;2023-04-24T11:50:22;5.65;;;0.98;;
59169;SDS011;52474;52.236;5.114;2023-04-24T11:52:51;3.60;;;1.10;;
59169;SDS011;52474;52.236;5.114;2023-04-24T11:57:43;4.20;;;0.70;;
59169;SDS011;52474;52.236;5.114;2023-04-24T12:00:16;3.35;;;0.60;;
59169;SDS011;52474;52.236;5.114;2023-04-24T12:02:49;1.55;;;0.68;;
59169;SDS011;52474;52.236;5.114;2023-04-24T12:05:27;4.00;;;1.08;;
59169;SDS011;52474;52.236;5.114;2023-04-24T12:07:56;6.85;;;0.88;;
59169;SDS011;52474;52.236;5.114;2023-04-24T12:10:29;2.78;;;1.13;;
59169;SDS011;52474;52.236;5.114;2023-04-24T12:12:59;3.72;;;1.35;;
59169;SDS011;52474;52.236;5.114;2023-04-24T12:15:25;3.60;;;1.17;;
59169;SDS011;52474;52.236;5.114;2023-04-24T12:17:52;7.25;;;1.40;;
59169;SDS011;52474;52.236;5.114;2023-04-24T12:20:32;4.22;;;1.23;;
59169;SDS011;52474;52.236;5.114;2023-04-24T12:23:01;8.23;;;1.30;;
59169;SDS011;52474;52.236;5.114;2023-04-24T12:25:38;7.38;;;1.65;;
59169;SDS011;52474;52.236;5.114;2023-04-24T12:30:31;4.25;;;1.50;;
59169;SDS011;52474;52.236;5.114;2023-04-24T12:32:59;5.47;;;1.43;;
59169;SDS011;52474;52.236;5.114;2023-04-24T12:35:27;12.25;;;1.73;;
59169;SDS011;52474;52.236;5.114;2023-04-24T12:37:54;11.10;;;1.88;;
59169;SDS011;52474;52.236;5.114;2023-04-24T12:40:21;11.48;;;2.20;;
59169;SDS011;52474;52.236;5.114;2023-04-24T12:42:50;10.40;;;2.15;;
59169;SDS011;52474;52.236;5.114;2023-04-24T12:45:17;6.57;;;2.00;;
59169;SDS011;52474;52.236;5.114;2023-04-24T12:47:44;9.82;;;2.08;;
59169;SDS011;52474;52.236;5.114;2023-04-24T12:50:11;10.77;;;2.22;;
59169;SDS011;52474;52.236;5.114;2023-04-24T12:52:40;9.80;;;2.13;;
59169;SDS011;52474;52.236;5.114;2023-04-24T12:55:07;9.38;;;1.95;;
59169;SDS011;52474;52.236;5.114;2023-04-24T12:57:35;10.43;;;2.20;;
59169;SDS011;52474;52.236;5.114;2023-04-24T13:00:06;14.88;;;2.70;;
59169;SDS011;52474;52.236;5.114;2023-04-24T13:02:33;10.27;;;2.20;;
59169;SDS011;52474;52.236;5.114;2023-04-24T13:04:59;11.63;;;2.30;;
59169;SDS011;52474;52.236;5.114;2023-04-24T13:07:26;13.20;;;2.75;;
59169;SDS011;52474;52.236;5.114;2023-04-24T13:09:53;5.35;;;1.85;;
59169;SDS011;52474;52.236;5.114;2023-04-24T13:12:20;7.45;;;1.98;;
59169;SDS011;52474;52.236;5.114;2023-04-24T13:14:49;8.00;;;2.00;;
59169;SDS011;52474;52.236;5.114;2023-04-24T13:17:15;7.53;;;2.00;;
59169;SDS011;52474;52.236;5.114;2023-04-24T13:19:42;7.78;;;2.42;;
59169;SDS011;52474;52.236;5.114;2023-04-24T13:22:10;7.03;;;1.95;;
59169;SDS011;52474;52.236;5.114;2023-04-24T13:24:37;17.42;;;2.40;;
59169;SDS011;52474;52.236;5.114;2023-04-24T13:27:08;9.20;;;2.58;;
59169;SDS011;52474;52.236;5.114;2023-04-24T13:29:35;14.30;;;3.17;;
59169;SDS011;52474;52.236;5.114;2023-04-24T13:32:01;8.68;;;2.97;;
59169;SDS011;52474;52.236;5.114;2023-04-24T13:34:27;10.38;;;3.15;;
59169;SDS011;52474;52.236;5.114;2023-04-24T13:36:54;11.23;;;2.88;;
59169;SDS011;52474;52.236;5.114;2023-04-24T13:39:24;6.68;;;2.35;;
59169;SDS011;52474;52.236;5.114;2023-04-24T13:41:51;7.07;;;2.00;;
59169;SDS011;52474;52.236;5.114;2023-04-24T13:44:17;10.85;;;2.72;;
59169;SDS011;52474;52.236;5.114;2023-04-24T13:46:45;14.52;;;2.70;;
59169;SDS011;52474;52.236;5.114;2023-04-24T13:49:12;14.85;;;2.53;;
59169;SDS011;52474;52.236;5.114;2023-04-24T13:51:39;9.85;;;2.35;;
59169;SDS011;52474;52.236;5.114;2023-04-24T13:54:05;6.15;;;2.22;;
59169;SDS011;52474;52.236;5.114;2023-04-24T13:56:32;7.78;;;2.05;;
59169;SDS011;52474;52.236;5.114;2023-04-24T13:58:58;12.68;;;3.25;;
59169;SDS011;52474;52.236;5.114;2023-04-24T14:01:24;15.45;;;2.40;;
59169;SDS011;52474;52.236;5.114;2023-04-24T14:03:54;7.35;;;2.60;;
59169;SDS011;52474;52.236;5.114;2023-04-24T14:06:21;13.20;;;2.92;;
59169;SDS011;52474;52.236;5.114;2023-04-24T14:08:49;7.45;;;1.95;;
59169;SDS011;52474;52.236;5.114;2023-04-24T14:11:16;14.05;;;2.38;;
59169;SDS011;52474;52.236;5.114;2023-04-24T14:13:42;7.65;;;2.40;;
59169;SDS011;52474;52.236;5.114;2023-04-24T14:16:08;8.77;;;2.00;;
59169;SDS011;52474;52.236;5.114;2023-04-24T14:18:35;9.20;;;2.08;;
59169;SDS011;52474;52.236;5.114;2023-04-24T14:21:02;7.63;;;2.53;;
59169;SDS011;52474;52.236;5.114;2023-04-24T14:23:29;7.18;;;2.70;;
59169;SDS011;52474;52.236;5.114;2023-04-24T14:25:56;9.98;;;2.53;;
59169;SDS011;52474;52.236;5.114;2023-04-24T14:28:23;7.93;;;2.83;;
59169;SDS011;52474;52.236;5.114;2023-04-24T14:30:50;4.82;;;1.90;;
59169;SDS011;52474;52.236;5.114;2023-04-24T14:33:16;6.18;;;1.90;;
59169;SDS011;52474;52.236;5.114;2023-04-24T14:35:42;5.57;;;1.80;;
59169;SDS011;52474;52.236;5.114;2023-04-24T14:38:09;9.25;;;2.13;;
59169;SDS011;52474;52.236;5.114;2023-04-24T14:40:36;9.63;;;2.10;;
59169;SDS011;52474;52.236;5.114;2023-04-24T14:43:03;12.70;;;2.40;;
59169;SDS011;52474;52.236;5.114;2023-04-24T14:45:29;9.20;;;2.17;;
59169;SDS011;52474;52.236;5.114;2023-04-24T14:47:55;5.65;;;1.85;;
59169;SDS011;52474;52.236;5.114;2023-04-24T14:50:22;9.52;;;2.30;;
59169;SDS011;52474;52.236;5.114;2023-04-24T14:52:48;8.65;;;2.70;;
59169;SDS011;52474;52.236;5.114;2023-04-24T14:55:13;8.25;;;2.85;;
59169;SDS011;52474;52.236;5.114;2023-04-24T14:57:40;8.50;;;2.42;;
59169;SDS011;52474;52.236;5.114;2023-04-24T15:00:06;10.13;;;2.78;;
59169;SDS011;52474;52.236;5.114;2023-04-24T15:02:36;12.13;;;3.13;;
59169;SDS011;52474;52.236;5.114;2023-04-24T15:05:05;11.00;;;2.88;;